createdAt,value
2019-02-27T00:00:04.544Z,1027.54
2019-02-27T00:01:03.395Z,1027.56
2019-02-27T00:02:03.392Z,1027.55
2019-02-27T00:03:03.339Z,1027.61
2019-02-27T00:04:03.329Z,1027.55
2019-02-27T00:05:05.896Z,1027.49
2019-02-27T00:06:03.326Z,1027.50
2019-02-27T00:07:03.316Z,1027.56
2019-02-27T00:08:03.284Z,1027.53
2019-02-27T00:09:03.275Z,1027.53
2019-02-27T00:10:05.903Z,1027.54
2019-02-27T00:11:03.269Z,1027.53
2019-02-27T00:12:03.262Z,1027.54
2019-02-27T00:13:03.228Z,1027.59
2019-02-27T00:14:03.215Z,1027.47
2019-02-27T00:15:05.097Z,1027.44
2019-02-27T00:16:03.194Z,1027.48
2019-02-27T00:17:03.192Z,1027.52
2019-02-27T00:18:03.174Z,1027.51
2019-02-27T00:19:03.175Z,1027.51
2019-02-27T00:20:05.061Z,1027.46
2019-02-27T00:21:03.214Z,1027.49
2019-02-27T00:22:03.141Z,1027.44
2019-02-27T00:23:03.112Z,1027.40
2019-02-27T00:24:03.101Z,1027.44
2019-02-27T00:25:04.034Z,1027.40
2019-02-27T00:26:03.107Z,1027.45
2019-02-27T00:27:03.062Z,1027.39
2019-02-27T00:28:03.056Z,1027.48
2019-02-27T00:29:03.062Z,1027.42
2019-02-27T00:30:05.610Z,1027.48
2019-02-27T00:31:03.057Z,1027.39
2019-02-27T00:32:03.052Z,1027.44
2019-02-27T00:33:03.007Z,1027.39
2019-02-27T00:34:03.019Z,1027.37
2019-02-27T00:35:06.504Z,1027.43
2019-02-27T00:36:02.969Z,1027.38
2019-02-27T00:37:02.965Z,1027.34
2019-02-27T00:38:02.979Z,1027.40
2019-02-27T00:39:02.974Z,1027.40
2019-02-27T00:40:05.299Z,1027.30
2019-02-27T00:41:02.918Z,1027.33
2019-02-27T00:42:02.905Z,1027.30
2019-02-27T00:43:02.944Z,1027.32
2019-02-27T00:44:02.889Z,1027.28
2019-02-27T00:45:06.800Z,1027.25
2019-02-27T00:46:02.867Z,1027.24
2019-02-27T00:47:02.845Z,1027.23
2019-02-27T00:48:02.871Z,1027.20
2019-02-27T00:49:02.851Z,1027.25
2019-02-27T00:50:05.621Z,1027.22
2019-02-27T00:51:02.798Z,1027.16
2019-02-27T00:52:02.810Z,1027.17
2019-02-27T00:53:02.808Z,1027.17
2019-02-27T00:54:02.767Z,1027.16
2019-02-27T00:55:04.760Z,1027.13
2019-02-27T00:56:02.748Z,1027.12
2019-02-27T00:57:02.738Z,1027.14
2019-02-27T00:58:02.725Z,1027.20
2019-02-27T00:59:02.738Z,1027.12
2019-02-27T01:00:06.241Z,1027.13
2019-02-27T01:01:02.715Z,1027.10
2019-02-27T01:02:02.686Z,1027.12
2019-02-27T01:03:02.674Z,1027.10
2019-02-27T01:04:02.729Z,1027.03
2019-02-27T01:05:02.677Z,1027.02
2019-02-27T01:06:02.641Z,1027.01
2019-02-27T01:07:02.624Z,1026.98
2019-02-27T01:08:02.616Z,1027.01
2019-02-27T01:09:03.950Z,1027.02
2019-02-27T01:10:02.625Z,1026.96
2019-02-27T01:11:02.576Z,1026.95
2019-02-27T01:12:02.567Z,1026.97
2019-02-27T01:13:02.561Z,1026.94
2019-02-27T01:14:04.057Z,1026.98
2019-02-27T01:15:02.538Z,1027.00
2019-02-27T01:16:02.542Z,1026.92
2019-02-27T01:17:02.640Z,1026.93
2019-02-27T01:18:02.504Z,1026.99
2019-02-27T01:19:04.745Z,1026.95
2019-02-27T01:20:02.588Z,1026.92
2019-02-27T01:21:02.475Z,1026.89
2019-02-27T01:22:02.477Z,1026.89
2019-02-27T01:23:02.456Z,1026.94
2019-02-27T01:24:02.438Z,1026.89
2019-02-27T01:25:02.571Z,1026.87
2019-02-27T01:26:02.436Z,1026.90
2019-02-27T01:27:04.522Z,1026.88
2019-02-27T01:28:02.430Z,1026.90
2019-02-27T01:29:02.415Z,1026.92
2019-02-27T01:30:02.372Z,1026.93
2019-02-27T01:31:02.425Z,1026.92
2019-02-27T01:32:02.352Z,1026.87
2019-02-27T01:33:04.163Z,1026.91
2019-02-27T01:34:02.330Z,1026.85
2019-02-27T01:35:02.317Z,1026.79
2019-02-27T01:36:02.310Z,1026.78
2019-02-27T01:37:02.295Z,1026.79
2019-02-27T01:38:05.082Z,1026.85
2019-02-27T01:39:02.309Z,1026.80
2019-02-27T01:40:02.265Z,1026.82
2019-02-27T01:41:02.253Z,1026.79
2019-02-27T01:42:02.240Z,1026.81
2019-02-27T01:43:05.540Z,1026.81
2019-02-27T01:44:02.314Z,1026.81
2019-02-27T01:45:02.238Z,1026.81
2019-02-27T01:46:02.196Z,1026.83
2019-02-27T01:47:02.989Z,1026.80
2019-02-27T01:48:02.176Z,1026.80
2019-02-27T01:49:02.173Z,1026.80
2019-02-27T01:50:02.182Z,1026.73
2019-02-27T01:51:02.136Z,1026.76
2019-02-27T01:52:02.246Z,1026.70
2019-02-27T01:53:02.116Z,1026.72
2019-02-27T01:54:02.116Z,1026.75
2019-02-27T01:55:02.116Z,1026.67
2019-02-27T01:56:02.102Z,1026.70
2019-02-27T01:57:02.923Z,1026.73
2019-02-27T01:58:02.061Z,1026.70
2019-02-27T01:59:02.050Z,1026.73
2019-02-27T02:00:02.197Z,1026.69
2019-02-27T02:01:02.045Z,1026.69
2019-02-27T02:02:03.472Z,1026.68
2019-02-27T02:03:02.008Z,1026.67
2019-02-27T02:04:01.996Z,1026.71
2019-02-27T02:05:01.980Z,1026.68
2019-02-27T02:06:01.992Z,1026.67
2019-02-27T02:07:03.989Z,1026.71
2019-02-27T02:08:01.977Z,1026.68
2019-02-27T02:09:01.938Z,1026.62
2019-02-27T02:10:01.931Z,1026.60
2019-02-27T02:11:02.159Z,1026.61
2019-02-27T02:12:01.917Z,1026.61
2019-02-27T02:13:01.903Z,1026.60
2019-02-27T02:14:01.920Z,1026.63
2019-02-27T02:15:01.896Z,1026.63
2019-02-27T02:16:01.860Z,1026.49
2019-02-27T02:17:01.859Z,1026.50
2019-02-27T02:18:01.867Z,1026.51
2019-02-27T02:19:01.834Z,1026.55
2019-02-27T02:20:01.822Z,1026.54
2019-02-27T02:21:01.928Z,1026.38
2019-02-27T02:22:01.797Z,1026.37
2019-02-27T02:23:01.780Z,1026.38
2019-02-27T02:24:01.907Z,1026.28
2019-02-27T02:25:01.787Z,1026.24
2019-02-27T02:26:01.883Z,1026.25
2019-02-27T02:27:01.787Z,1026.23
2019-02-27T02:28:01.726Z,1026.21
2019-02-27T02:29:01.748Z,1026.20
2019-02-27T02:30:01.779Z,1026.14
2019-02-27T02:31:05.221Z,1026.20
2019-02-27T02:32:01.693Z,1026.12
2019-02-27T02:33:01.689Z,1026.13
2019-02-27T02:34:05.147Z,1026.09
2019-02-27T02:35:01.686Z,1026.11
2019-02-27T02:36:01.667Z,1026.04
2019-02-27T02:37:02.694Z,1026.07
2019-02-27T02:38:01.619Z,1026.06
2019-02-27T02:39:01.609Z,1026.02
2019-02-27T02:40:01.650Z,1026.02
2019-02-27T02:41:01.619Z,1026.01
2019-02-27T02:42:01.571Z,1026.03
2019-02-27T02:43:03.168Z,1025.99
2019-02-27T02:44:01.550Z,1026.01
2019-02-27T02:45:01.540Z,1026.03
2019-02-27T02:46:08.028Z,1025.97
2019-02-27T02:47:02.515Z,1025.96
2019-02-27T02:48:01.557Z,1025.93
2019-02-27T02:49:06.255Z,1025.93
2019-02-27T02:50:02.490Z,1025.92
2019-02-27T02:51:01.493Z,1025.96
2019-02-27T02:52:04.354Z,1025.87
2019-02-27T02:53:01.466Z,1025.89
2019-02-27T02:54:02.217Z,1025.84
2019-02-27T02:55:01.430Z,1025.84
2019-02-27T02:56:01.515Z,1025.88
2019-02-27T02:57:04.638Z,1025.76
2019-02-27T02:58:01.605Z,1025.83
2019-02-27T02:59:01.384Z,1025.81
2019-02-27T03:00:01.895Z,1025.81
2019-02-27T03:01:01.417Z,1025.78
2019-02-27T03:02:01.361Z,1025.79
2019-02-27T03:03:01.926Z,1025.82
2019-02-27T03:04:01.399Z,1025.74
2019-02-27T03:05:01.316Z,1025.76
2019-02-27T03:06:01.319Z,1025.75
2019-02-27T03:07:01.302Z,1025.66
2019-02-27T03:08:01.292Z,1025.63
2019-02-27T03:09:01.308Z,1025.68
2019-02-27T03:10:07.127Z,1025.60
2019-02-27T03:11:02.289Z,1025.55
2019-02-27T03:12:01.243Z,1025.52
2019-02-27T03:13:05.776Z,1025.50
2019-02-27T03:14:02.222Z,1025.51
2019-02-27T03:15:01.207Z,1025.48
2019-02-27T03:16:04.840Z,1025.52
2019-02-27T03:17:01.193Z,1025.49
2019-02-27T03:18:01.184Z,1025.42
2019-02-27T03:19:04.841Z,1025.46
2019-02-27T03:20:01.259Z,1025.37
2019-02-27T03:21:01.142Z,1025.39
2019-02-27T03:22:03.559Z,1025.41
2019-02-27T03:23:01.219Z,1025.38
2019-02-27T03:24:01.109Z,1025.34
2019-02-27T03:25:04.471Z,1025.39
2019-02-27T03:26:01.123Z,1025.34
2019-02-27T03:27:01.085Z,1025.32
2019-02-27T03:28:04.400Z,1025.36
2019-02-27T03:29:01.073Z,1025.31
2019-02-27T03:30:01.054Z,1025.34
2019-02-27T03:31:01.054Z,1025.42
2019-02-27T03:32:01.539Z,1025.37
2019-02-27T03:33:01.038Z,1025.29
2019-02-27T03:34:07.951Z,1025.25
2019-02-27T03:35:02.015Z,1025.27
2019-02-27T03:36:03.405Z,1025.29
2019-02-27T03:37:00.971Z,1025.27
2019-02-27T03:38:00.960Z,1025.29
2019-02-27T03:39:01.011Z,1025.31
2019-02-27T03:40:00.938Z,1025.25
2019-02-27T03:41:00.927Z,1025.29
2019-02-27T03:42:00.917Z,1025.30
2019-02-27T03:43:00.917Z,1025.24
2019-02-27T03:44:01.708Z,1025.27
2019-02-27T03:45:00.879Z,1025.22
2019-02-27T03:46:02.981Z,1025.24
2019-02-27T03:47:01.868Z,1025.25
2019-02-27T03:48:00.849Z,1025.29
2019-02-27T03:49:03.735Z,1025.31
2019-02-27T03:50:00.854Z,1025.31
2019-02-27T03:51:00.820Z,1025.28
2019-02-27T03:52:01.435Z,1025.27
2019-02-27T03:53:00.793Z,1025.21
2019-02-27T03:54:00.792Z,1025.24
2019-02-27T03:55:00.777Z,1025.25
2019-02-27T03:56:00.764Z,1025.22
2019-02-27T03:57:00.769Z,1025.23
2019-02-27T03:58:00.742Z,1025.25
2019-02-27T03:59:05.572Z,1025.17
2019-02-27T04:00:01.721Z,1025.25
2019-02-27T04:01:00.718Z,1025.23
2019-02-27T04:02:05.882Z,1025.19
2019-02-27T04:03:01.720Z,1025.19
2019-02-27T04:04:00.711Z,1025.15
2019-02-27T04:05:05.171Z,1025.13
2019-02-27T04:06:01.659Z,1025.16
2019-02-27T04:07:00.648Z,1025.15
2019-02-27T04:08:07.241Z,1025.16
2019-02-27T04:09:01.688Z,1025.16
2019-02-27T04:10:00.634Z,1025.20
2019-02-27T04:11:05.537Z,1025.17
2019-02-27T04:12:01.596Z,1025.15
2019-02-27T04:13:00.617Z,1025.18
2019-02-27T04:14:04.920Z,1025.11
2019-02-27T04:15:00.594Z,1025.18
2019-02-27T04:16:00.540Z,1025.15
2019-02-27T04:17:05.378Z,1025.19
2019-02-27T04:18:01.528Z,1025.16
2019-02-27T04:19:04.489Z,1025.16
2019-02-27T04:20:00.605Z,1025.18
2019-02-27T04:21:00.482Z,1025.17
2019-02-27T04:22:01.134Z,1025.18
2019-02-27T04:23:00.462Z,1025.17
2019-02-27T04:24:00.454Z,1025.16
2019-02-27T04:25:00.454Z,1025.13
2019-02-27T04:26:05.418Z,1025.15
2019-02-27T04:27:01.606Z,1025.20
2019-02-27T04:28:00.410Z,1025.17
2019-02-27T04:29:03.977Z,1025.16
2019-02-27T04:30:00.412Z,1025.14
2019-02-27T04:31:00.368Z,1025.16
2019-02-27T04:32:00.389Z,1025.15
2019-02-27T04:33:00.356Z,1025.17
2019-02-27T04:34:01.272Z,1025.17
2019-02-27T04:35:00.326Z,1025.16
2019-02-27T04:36:00.315Z,1025.18
2019-02-27T04:37:00.335Z,1025.13
2019-02-27T04:38:00.298Z,1025.16
2019-02-27T04:39:02.538Z,1025.20
2019-02-27T04:40:00.397Z,1025.18
2019-02-27T04:41:00.262Z,1025.17
2019-02-27T04:42:00.249Z,1025.16
2019-02-27T04:43:00.356Z,1025.10
2019-02-27T04:44:00.237Z,1025.13
2019-02-27T04:45:00.286Z,1025.16
2019-02-27T04:46:00.226Z,1025.11
2019-02-27T04:47:00.273Z,1025.12
2019-02-27T04:48:00.182Z,1025.10
2019-02-27T04:49:04.060Z,1025.08
2019-02-27T04:50:00.221Z,1025.08
2019-02-27T04:51:00.162Z,1025.10
2019-02-27T04:52:00.149Z,1025.08
2019-02-27T04:53:00.154Z,1025.05
2019-02-27T04:54:00.138Z,1025.06
2019-02-27T04:55:00.297Z,1025.11
2019-02-27T04:56:00.106Z,1025.06
2019-02-27T04:57:00.094Z,1025.05
2019-02-27T04:58:00.095Z,1025.05
2019-02-27T04:59:00.149Z,1025.05
2019-02-27T05:00:00.155Z,1025.04
2019-02-27T05:01:00.049Z,1025.04
2019-02-27T05:02:00.059Z,1025.10
2019-02-27T05:03:00.051Z,1025.04
2019-02-27T05:04:01.568Z,1025.10
2019-02-27T05:05:00.024Z,1025.06
2019-02-27T05:05:59.999Z,1025.06
2019-02-27T05:06:59.987Z,1025.04
2019-02-27T05:07:59.966Z,1025.04
2019-02-27T05:09:00.742Z,1024.99
2019-02-27T05:09:59.944Z,1024.99
2019-02-27T05:10:59.958Z,1025.04
2019-02-27T05:11:59.930Z,1025.04
2019-02-27T05:12:59.915Z,1025.01
2019-02-27T05:13:59.896Z,1024.96
2019-02-27T05:15:00.932Z,1024.95
2019-02-27T05:15:59.875Z,1024.96
2019-02-27T05:16:59.878Z,1024.92
2019-02-27T05:17:59.935Z,1024.91
2019-02-27T05:19:03.603Z,1024.91
2019-02-27T05:19:59.841Z,1024.91
2019-02-27T05:20:59.874Z,1024.85
2019-02-27T05:22:01.289Z,1024.84
2019-02-27T05:23:00.374Z,1024.84
2019-02-27T05:23:59.799Z,1024.88
2019-02-27T05:24:59.786Z,1024.83
2019-02-27T05:25:59.818Z,1024.85
2019-02-27T05:27:00.738Z,1024.85
2019-02-27T05:28:01.520Z,1024.86
2019-02-27T05:28:59.745Z,1024.83
2019-02-27T05:30:00.125Z,1024.83
2019-02-27T05:30:59.708Z,1024.82
2019-02-27T05:31:59.736Z,1024.83
2019-02-27T05:33:02.304Z,1024.86
2019-02-27T05:33:59.685Z,1024.85
2019-02-27T05:34:59.677Z,1024.91
2019-02-27T05:35:59.681Z,1024.88
2019-02-27T05:36:59.647Z,1024.89
2019-02-27T05:37:59.706Z,1024.88
2019-02-27T05:38:59.709Z,1024.86
2019-02-27T05:39:59.616Z,1024.86
2019-02-27T05:41:00.104Z,1024.88
2019-02-27T05:42:00.910Z,1024.87
2019-02-27T05:42:59.598Z,1024.84
2019-02-27T05:43:59.595Z,1024.84
2019-02-27T05:44:59.562Z,1024.85
2019-02-27T05:46:02.772Z,1024.90
2019-02-27T05:46:59.533Z,1024.87
2019-02-27T05:47:59.522Z,1024.84
2019-02-27T05:48:59.531Z,1024.87
2019-02-27T05:50:00.484Z,1024.85
2019-02-27T05:50:59.511Z,1024.84
2019-02-27T05:51:59.481Z,1024.86
2019-02-27T05:52:59.465Z,1024.82
2019-02-27T05:53:59.474Z,1024.91
2019-02-27T05:54:59.483Z,1024.82
2019-02-27T05:55:59.473Z,1024.86
2019-02-27T05:56:59.433Z,1024.89
2019-02-27T05:57:59.445Z,1024.82
2019-02-27T05:58:59.418Z,1024.77
2019-02-27T06:00:02.290Z,1024.77
2019-02-27T06:01:02.051Z,1024.78
2019-02-27T06:02:00.368Z,1024.73
2019-02-27T06:02:59.386Z,1024.72
2019-02-27T06:03:59.350Z,1024.70
2019-02-27T06:04:59.752Z,1024.71
2019-02-27T06:05:59.356Z,1024.81
2019-02-27T06:06:59.332Z,1024.71
2019-02-27T06:08:02.096Z,1024.70
2019-02-27T06:08:59.304Z,1024.75
2019-02-27T06:09:59.399Z,1024.76
2019-02-27T06:10:59.269Z,1024.77
2019-02-27T06:11:59.271Z,1024.69
2019-02-27T06:12:59.248Z,1024.70
2019-02-27T06:13:59.240Z,1024.71
2019-02-27T06:14:59.227Z,1024.67
2019-02-27T06:16:02.735Z,1024.64
2019-02-27T06:16:59.216Z,1024.66
2019-02-27T06:17:59.217Z,1024.65
2019-02-27T06:18:59.220Z,1024.63
2019-02-27T06:19:59.169Z,1024.65
2019-02-27T06:20:59.160Z,1024.61
2019-02-27T06:21:59.215Z,1024.65
2019-02-27T06:22:59.142Z,1024.65
2019-02-27T06:23:59.157Z,1024.65
2019-02-27T06:24:59.118Z,1024.67
2019-02-27T06:26:00.151Z,1024.65
2019-02-27T06:26:59.103Z,1024.64
2019-02-27T06:27:59.101Z,1024.65
2019-02-27T06:28:59.075Z,1024.68
2019-02-27T06:29:59.794Z,1024.72
2019-02-27T06:30:59.052Z,1024.69
2019-02-27T06:31:59.053Z,1024.70
2019-02-27T06:32:59.048Z,1024.71
2019-02-27T06:33:59.126Z,1024.72
2019-02-27T06:34:59.442Z,1024.71
2019-02-27T06:35:58.992Z,1024.69
2019-02-27T06:36:58.986Z,1024.73
2019-02-27T06:37:59.723Z,1024.72
2019-02-27T06:39:00.426Z,1024.72
2019-02-27T06:39:58.958Z,1024.78
2019-02-27T06:40:59.456Z,1024.80
2019-02-27T06:41:58.944Z,1024.78
2019-02-27T06:42:58.947Z,1024.75
2019-02-27T06:44:01.383Z,1024.72
2019-02-27T06:44:58.927Z,1024.77
2019-02-27T06:45:58.897Z,1024.77
2019-02-27T06:46:58.876Z,1024.65
2019-02-27T06:47:58.867Z,1024.71
2019-02-27T06:48:58.854Z,1024.63
2019-02-27T06:49:58.859Z,1024.65
2019-02-27T06:51:00.917Z,1024.68
2019-02-27T06:51:58.823Z,1024.63
2019-02-27T06:52:58.808Z,1024.73
2019-02-27T06:53:58.794Z,1024.72
2019-02-27T06:54:58.793Z,1024.66
2019-02-27T06:56:02.987Z,1024.61
2019-02-27T06:56:58.791Z,1024.68
2019-02-27T06:57:58.755Z,1024.72
2019-02-27T06:58:58.846Z,1024.60
2019-02-27T07:00:02.191Z,1024.64
2019-02-27T07:00:58.725Z,1024.63
2019-02-27T07:01:58.759Z,1024.60
2019-02-27T07:02:58.789Z,1024.61
2019-02-27T07:03:58.712Z,1024.65
2019-02-27T07:04:58.687Z,1024.58
2019-02-27T07:05:58.668Z,1024.64
2019-02-27T07:07:00.555Z,1024.64
2019-02-27T07:07:58.656Z,1024.66
2019-02-27T07:08:58.676Z,1024.63
2019-02-27T07:09:58.641Z,1024.64
2019-02-27T07:11:09.924Z,1024.63
2019-02-27T07:11:59.599Z,1024.61
2019-02-27T07:12:58.601Z,1024.60
2019-02-27T07:13:58.579Z,1024.54
2019-02-27T07:14:59.226Z,1024.52
2019-02-27T07:15:58.578Z,1024.57
2019-02-27T07:16:58.547Z,1024.58
2019-02-27T07:17:58.604Z,1024.59
2019-02-27T07:18:58.530Z,1024.53
2019-02-27T07:19:58.611Z,1024.54
2019-02-27T07:20:59.285Z,1024.54
2019-02-27T07:21:58.495Z,1024.52
2019-02-27T07:22:58.485Z,1024.53
2019-02-27T07:23:58.698Z,1024.50
2019-02-27T07:24:58.487Z,1024.58
2019-02-27T07:25:58.447Z,1024.55
2019-02-27T07:26:58.434Z,1024.50
2019-02-27T07:27:58.426Z,1024.48
2019-02-27T07:28:58.413Z,1024.49
2019-02-27T07:29:58.422Z,1024.45
2019-02-27T07:30:58.528Z,1024.53
2019-02-27T07:31:58.382Z,1024.39
2019-02-27T07:32:58.386Z,1024.44
2019-02-27T07:33:58.480Z,1024.42
2019-02-27T07:34:58.373Z,1024.46
2019-02-27T07:36:03.446Z,1024.38
2019-02-27T07:36:59.322Z,1024.36
2019-02-27T07:37:58.317Z,1024.33
2019-02-27T07:38:58.370Z,1024.39
2019-02-27T07:39:58.298Z,1024.41
2019-02-27T07:40:58.319Z,1024.37
2019-02-27T07:41:58.272Z,1024.39
2019-02-27T07:42:58.256Z,1024.45
2019-02-27T07:43:58.275Z,1024.46
2019-02-27T07:44:58.249Z,1024.49
2019-02-27T07:45:58.225Z,1024.53
2019-02-27T07:46:58.230Z,1024.54
2019-02-27T07:47:58.214Z,1024.59
2019-02-27T07:48:58.191Z,1024.60
2019-02-27T07:49:58.200Z,1024.62
2019-02-27T07:50:58.172Z,1024.62
2019-02-27T07:51:58.164Z,1024.58
2019-02-27T07:52:58.162Z,1024.61
2019-02-27T07:53:58.179Z,1024.63
2019-02-27T07:54:58.129Z,1024.68
2019-02-27T07:55:58.127Z,1024.64
2019-02-27T07:56:58.102Z,1024.69
2019-02-27T07:57:58.771Z,1024.69
2019-02-27T07:58:58.083Z,1024.64
2019-02-27T07:59:58.100Z,1024.61
2019-02-27T08:00:58.178Z,1024.59
2019-02-27T08:02:02.314Z,1024.61
2019-02-27T08:02:58.041Z,1024.59
2019-02-27T08:03:58.040Z,1024.62
2019-02-27T08:04:58.055Z,1024.62
2019-02-27T08:05:59.790Z,1024.57
2019-02-27T08:06:57.992Z,1024.57
2019-02-27T08:07:57.993Z,1024.54
2019-02-27T08:08:57.981Z,1024.62
2019-02-27T08:09:57.992Z,1024.61
2019-02-27T08:10:57.950Z,1024.58
2019-02-27T08:11:57.963Z,1024.58
2019-02-27T08:12:57.936Z,1024.60
2019-02-27T08:13:57.925Z,1024.65
2019-02-27T08:14:57.916Z,1024.59
2019-02-27T08:15:58.133Z,1024.62
2019-02-27T08:16:58.157Z,1024.61
2019-02-27T08:17:58.731Z,1024.65
2019-02-27T08:18:57.860Z,1024.61
2019-02-27T08:19:57.869Z,1024.66
2019-02-27T08:20:57.845Z,1024.62
2019-02-27T08:21:57.849Z,1024.62
2019-02-27T08:22:58.039Z,1024.63
2019-02-27T08:23:57.811Z,1024.60
2019-02-27T08:24:57.801Z,1024.56
2019-02-27T08:25:57.818Z,1024.59
2019-02-27T08:26:57.774Z,1024.59
2019-02-27T08:27:57.916Z,1024.54
2019-02-27T08:28:57.756Z,1024.53
2019-02-27T08:29:59.763Z,1024.53
2019-02-27T08:30:57.729Z,1024.60
2019-02-27T08:32:00.869Z,1024.50
2019-02-27T08:32:57.715Z,1024.55
2019-02-27T08:33:57.702Z,1024.56
2019-02-27T08:34:57.690Z,1024.47
2019-02-27T08:35:57.703Z,1024.47
2019-02-27T08:36:57.663Z,1024.44
2019-02-27T08:38:02.624Z,1024.46
2019-02-27T08:38:58.663Z,1024.48
2019-02-27T08:39:57.648Z,1024.40
2019-02-27T08:40:58.439Z,1024.41
2019-02-27T08:41:57.620Z,1024.42
2019-02-27T08:42:57.595Z,1024.44
2019-02-27T08:43:57.668Z,1024.43
2019-02-27T08:44:57.604Z,1024.42
2019-02-27T08:46:02.106Z,1024.36
2019-02-27T08:46:57.579Z,1024.38
2019-02-27T08:47:57.549Z,1024.40
2019-02-27T08:48:57.562Z,1024.42
2019-02-27T08:49:58.007Z,1024.34
2019-02-27T08:50:57.515Z,1024.36
2019-02-27T08:51:57.507Z,1024.30
2019-02-27T08:52:57.998Z,1024.35
2019-02-27T08:53:59.286Z,1024.26
2019-02-27T08:54:57.481Z,1024.26
2019-02-27T08:55:57.447Z,1024.27
2019-02-27T08:56:57.487Z,1024.24
2019-02-27T08:57:57.449Z,1024.23
2019-02-27T08:58:57.422Z,1024.30
2019-02-27T08:59:57.412Z,1024.23
2019-02-27T09:00:57.455Z,1024.27
2019-02-27T09:01:57.386Z,1024.26
2019-02-27T09:03:02.551Z,1024.25
2019-02-27T09:03:58.354Z,1024.25
2019-02-27T09:04:57.376Z,1024.24
2019-02-27T09:05:57.337Z,1024.20
2019-02-27T09:07:02.142Z,1024.20
2019-02-27T09:07:58.316Z,1024.14
2019-02-27T09:08:57.305Z,1024.17
2019-02-27T09:09:57.301Z,1024.12
2019-02-27T09:10:57.459Z,1024.14
2019-02-27T09:11:57.278Z,1024.18
2019-02-27T09:13:04.956Z,1024.22
2019-02-27T09:13:58.242Z,1024.14
2019-02-27T09:14:57.249Z,1024.12
2019-02-27T09:15:57.257Z,1024.12
2019-02-27T09:16:57.245Z,1024.09
2019-02-27T09:17:59.257Z,1024.12
2019-02-27T09:18:57.196Z,1024.16
2019-02-27T09:19:57.206Z,1024.17
2019-02-27T09:20:57.179Z,1024.10
2019-02-27T09:21:57.158Z,1024.18
2019-02-27T09:22:57.208Z,1024.14
2019-02-27T09:23:57.201Z,1024.13
2019-02-27T09:24:57.249Z,1024.15
2019-02-27T09:25:57.627Z,1024.13
2019-02-27T09:26:57.106Z,1024.07
2019-02-27T09:27:57.093Z,1024.03
2019-02-27T09:28:57.099Z,1024.05
2019-02-27T09:29:57.073Z,1024.04
2019-02-27T09:30:57.060Z,1024.05
2019-02-27T09:31:57.066Z,1024.03
2019-02-27T09:32:57.095Z,1024.08
2019-02-27T09:33:57.053Z,1024.07
2019-02-27T09:34:59.403Z,1024.08
2019-02-27T09:35:57.011Z,1024.07
2019-02-27T09:36:57.005Z,1024.02
2019-02-27T09:37:56.980Z,1024.01
2019-02-27T09:38:57.595Z,1023.91
2019-02-27T09:39:56.972Z,1023.92
2019-02-27T09:40:56.976Z,1023.96
2019-02-27T09:41:56.933Z,1023.95
2019-02-27T09:42:56.924Z,1023.91
2019-02-27T09:43:58.606Z,1023.87
2019-02-27T09:44:56.912Z,1023.94
2019-02-27T09:45:56.885Z,1023.90
2019-02-27T09:46:56.907Z,1023.85
2019-02-27T09:47:59.342Z,1023.95
2019-02-27T09:48:56.857Z,1023.86
2019-02-27T09:49:56.843Z,1023.90
2019-02-27T09:50:57.031Z,1023.90
2019-02-27T09:51:56.997Z,1023.82
2019-02-27T09:52:56.861Z,1023.85
2019-02-27T09:53:56.800Z,1023.85
2019-02-27T09:54:56.793Z,1023.92
2019-02-27T09:55:56.774Z,1023.92
2019-02-27T09:56:56.764Z,1023.84
2019-02-27T09:57:56.751Z,1023.91
2019-02-27T09:58:56.762Z,1023.88
2019-02-27T09:59:56.771Z,1023.91
2019-02-27T10:00:59.340Z,1023.87
2019-02-27T10:01:57.326Z,1023.87
2019-02-27T10:02:58.270Z,1023.88
2019-02-27T10:03:56.683Z,1023.92
2019-02-27T10:05:01.623Z,1023.89
2019-02-27T10:05:57.668Z,1023.94
2019-02-27T10:06:56.653Z,1023.91
2019-02-27T10:07:57.505Z,1023.93
2019-02-27T10:08:59.045Z,1023.97
2019-02-27T10:09:56.619Z,1023.96
2019-02-27T10:10:56.612Z,1023.95
2019-02-27T10:11:56.603Z,1023.90
2019-02-27T10:12:57.261Z,1023.94
2019-02-27T10:13:56.610Z,1023.94
2019-02-27T10:14:56.574Z,1023.88
2019-02-27T10:16:00.219Z,1023.82
2019-02-27T10:16:56.553Z,1023.83
2019-02-27T10:17:56.536Z,1023.82
2019-02-27T10:18:56.577Z,1023.77
2019-02-27T10:20:01.415Z,1023.82
2019-02-27T10:20:57.495Z,1023.76
2019-02-27T10:21:56.489Z,1023.85
2019-02-27T10:22:56.492Z,1023.78
2019-02-27T10:23:56.499Z,1023.78
2019-02-27T10:24:56.449Z,1023.76
2019-02-27T10:25:56.440Z,1023.71
2019-02-27T10:26:56.463Z,1023.68
2019-02-27T10:27:56.419Z,1023.65
2019-02-27T10:28:56.405Z,1023.67
2019-02-27T10:29:56.451Z,1023.61
2019-02-27T10:30:56.421Z,1023.66
2019-02-27T10:31:58.262Z,1023.56
2019-02-27T10:32:56.377Z,1023.57
2019-02-27T10:33:56.352Z,1023.52
2019-02-27T10:34:58.312Z,1023.56
2019-02-27T10:35:56.344Z,1023.56
2019-02-27T10:36:56.376Z,1023.50
2019-02-27T10:37:56.401Z,1023.53
2019-02-27T10:38:56.293Z,1023.50
2019-02-27T10:39:56.382Z,1023.52
2019-02-27T10:40:56.276Z,1023.42
2019-02-27T10:41:56.264Z,1023.44
2019-02-27T10:42:56.277Z,1023.44
2019-02-27T10:43:57.156Z,1023.48
2019-02-27T10:44:56.232Z,1023.42
2019-02-27T10:45:56.233Z,1023.38
2019-02-27T10:46:57.261Z,1023.38
2019-02-27T10:47:56.221Z,1023.38
2019-02-27T10:48:56.223Z,1023.33
2019-02-27T10:49:56.170Z,1023.30
2019-02-27T10:50:56.157Z,1023.30
2019-02-27T10:51:56.149Z,1023.32
2019-02-27T10:52:56.142Z,1023.31
2019-02-27T10:53:56.130Z,1023.27
2019-02-27T10:54:56.165Z,1023.26
2019-02-27T10:55:56.201Z,1023.26
2019-02-27T10:56:56.552Z,1023.29
2019-02-27T10:57:56.769Z,1023.30
2019-02-27T10:58:56.775Z,1023.26
2019-02-27T10:59:56.054Z,1023.26
2019-02-27T11:00:58.065Z,1023.25
2019-02-27T11:01:56.040Z,1023.23
2019-02-27T11:02:56.029Z,1023.23
2019-02-27T11:03:56.038Z,1023.19
2019-02-27T11:04:56.004Z,1023.20
2019-02-27T11:05:55.989Z,1023.12
2019-02-27T11:06:55.978Z,1023.13
2019-02-27T11:07:55.972Z,1023.09
2019-02-27T11:08:56.005Z,1023.05
2019-02-27T11:09:55.993Z,1023.02
2019-02-27T11:10:55.946Z,1023.07
2019-02-27T11:11:55.935Z,1023.00
2019-02-27T11:12:55.912Z,1022.96
2019-02-27T11:13:55.900Z,1022.96
2019-02-27T11:14:55.924Z,1023.00
2019-02-27T11:15:55.892Z,1022.90
2019-02-27T11:16:55.872Z,1022.86
2019-02-27T11:17:55.871Z,1022.85
2019-02-27T11:18:55.847Z,1022.84
2019-02-27T11:19:55.839Z,1022.81
2019-02-27T11:20:59.038Z,1022.83
2019-02-27T11:21:58.311Z,1022.80
2019-02-27T11:22:55.800Z,1022.75
2019-02-27T11:23:55.802Z,1022.81
2019-02-27T11:24:55.811Z,1022.80
2019-02-27T11:25:56.920Z,1022.78
2019-02-27T11:26:56.994Z,1022.74
2019-02-27T11:27:55.747Z,1022.75
2019-02-27T11:28:57.720Z,1022.73
2019-02-27T11:29:59.576Z,1022.72
2019-02-27T11:30:56.747Z,1022.73
2019-02-27T11:31:55.705Z,1022.75
2019-02-27T11:32:57.829Z,1022.70
2019-02-27T11:33:55.676Z,1022.67
2019-02-27T11:34:55.667Z,1022.68
2019-02-27T11:35:55.687Z,1022.66
2019-02-27T11:36:55.677Z,1022.73
2019-02-27T11:37:55.636Z,1022.69
2019-02-27T11:38:56.647Z,1022.67
2019-02-27T11:39:55.618Z,1022.61
2019-02-27T11:40:55.607Z,1022.60
2019-02-27T11:41:55.768Z,1022.61
2019-02-27T11:42:55.588Z,1022.59
2019-02-27T11:43:55.600Z,1022.60
2019-02-27T11:44:55.618Z,1022.58
2019-02-27T11:45:58.166Z,1022.55
2019-02-27T11:46:58.996Z,1022.60
2019-02-27T11:47:55.515Z,1022.61
2019-02-27T11:48:57.068Z,1022.53
2019-02-27T11:49:55.552Z,1022.56
2019-02-27T11:50:55.484Z,1022.53
2019-02-27T11:51:56.968Z,1022.46
2019-02-27T11:52:55.532Z,1022.41
2019-02-27T11:53:55.445Z,1022.43
2019-02-27T11:54:55.457Z,1022.37
2019-02-27T11:55:55.468Z,1022.39
2019-02-27T11:56:56.927Z,1022.45
2019-02-27T11:57:55.402Z,1022.37
2019-02-27T11:58:55.396Z,1022.37
2019-02-27T11:59:55.398Z,1022.33
2019-02-27T12:00:55.376Z,1022.24
2019-02-27T12:01:56.145Z,1022.27
2019-02-27T12:02:55.344Z,1022.21
2019-02-27T12:03:55.334Z,1022.25
2019-02-27T12:04:56.685Z,1022.15